Time;durP1;ratioP1;P1;durP2;ratioP2;P2;SDS_P1;SDS_P2;PMS_P1;PMS_P2;Temp;Humidity;BMP_temperature;BMP_pressure;BME280_temperature;BME280_humidity;BME280_pressure;Samples;Min_cycle;Max_cycle;Signal;HPM_P1;HPM_P2
2022/05/27 00:00:44;;;;;;;9.23;7.28;;;;;;;20.54;81.75;98816.63;4845210;28;20069;-64
2022/05/27 00:03:10;;;;;;;10.30;7.68;;;;;;;20.74;81.38;98856.25;4792835;28;20035;-64
2022/05/27 00:05:36;;;;;;;11.70;8.02;;;;;;;20.74;81.35;98848.34;4790247;28;20031;-63
2022/05/27 00:08:01;;;;;;;12.68;7.38;;;;;;;20.58;81.51;98848.72;4844986;28;20204;-63
2022/05/27 00:10:27;;;;;;;10.32;7.43;;;;;;;20.24;83.15;98821.47;4840796;28;20039;-59
2022/05/27 00:12:53;;;;;;;11.18;7.35;;;;;;;20.32;83.61;98847.69;4791645;28;20035;-65
2022/05/27 00:15:19;;;;;;;10.98;7.95;;;;;;;20.27;85.13;98836.94;4845003;28;20088;-63
2022/05/27 00:17:45;;;;;;;9.73;7.55;;;;;;;20.30;85.66;98842.63;4844139;28;20327;-61
2022/05/27 00:20:11;;;;;;;9.82;8.23;;;;;;;20.32;85.23;98834.50;4798203;28;20363;-59
2022/05/27 00:22:36;;;;;;;13.27;7.65;;;;;;;20.33;85.16;98839.59;4822668;28;20133;-65
2022/05/27 00:25:03;;;;;;;11.63;7.95;;;;;;;20.11;85.13;98806.44;4838576;28;20042;-63
2022/05/27 00:27:28;;;;;;;9.48;7.78;;;;;;;20.39;84.64;98831.84;4827419;28;20039;-61
2022/05/27 00:29:54;;;;;;;13.15;8.10;;;;;;;20.41;84.39;98848.28;4790265;28;20284;-64
2022/05/27 00:32:19;;;;;;;11.65;7.68;;;;;;;20.33;84.77;98844.88;4827112;28;20114;-61
2022/05/27 00:34:45;;;;;;;9.85;8.07;;;;;;;20.23;83.94;98820.69;4793127;28;24652;-63
2022/05/27 00:37:10;;;;;;;9.75;7.25;;;;;;;20.30;83.74;98849.72;4832452;28;20563;-62
2022/05/27 00:39:38;;;;;;;9.65;7.45;;;;;;;20.37;83.69;98845.28;4853421;28;20023;-64
2022/05/27 00:42:04;;;;;;;14.02;7.50;;;;;;;20.38;83.60;98838.16;4781615;28;20042;-60
2022/05/27 00:44:29;;;;;;;9.82;7.68;;;;;;;20.30;83.46;98837.34;4832824;28;20117;-65
2022/05/27 00:47:02;;;;;;;11.55;8.00;;;;;;;20.37;83.53;98837.34;4862585;28;20634;-65
2022/05/27 00:49:27;;;;;;;12.13;7.40;;;;;;;20.05;83.55;98783.50;4805816;28;20074;-63
2022/05/27 00:52:01;;;;;;;10.40;8.07;;;;;;;19.97;83.81;98760.78;4793321;28;20177;-66
2022/05/27 00:54:27;;;;;;;10.75;7.20;;;;;;;20.34;84.12;98821.91;4850178;28;21046;-62
2022/05/27 00:57:07;;;;;;;9.98;7.07;;;;;;;20.34;84.27;98816.63;4849767;28;20059;-63
2022/05/27 01:00:12;;;;;;;11.20;7.03;;;;;;;20.38;83.17;98812.56;4803005;28;20039;-62
2022/05/27 01:02:38;;;;;;;13.18;7.78;;;;;;;20.28;84.07;98822.69;4774630;28;20757;-61
2022/05/27 01:05:06;;;;;;;11.18;7.53;;;;;;;20.04;83.77;98789.78;4835756;28;20047;-64
2022/05/27 01:07:32;;;;;;;10.90;7.50;;;;;;;19.93;85.02;98785.91;4828506;28;20733;-64
2022/05/27 01:10:00;;;;;;;10.40;7.63;;;;;;;19.96;84.55;98786.31;4812724;28;20039;-59
2022/05/27 01:12:31;;;;;;;9.40;7.05;;;;;;;20.06;85.03;98824.72;4799564;28;20045;-62
2022/05/27 01:15:18;;;;;;;10.52;7.57;;;;;;;19.96;85.04;98830.38;4854116;28;20039;-64
2022/05/27 01:18:08;;;;;;;13.20;7.53;;;;;;;20.03;85.11;98819.84;4804947;28;20018;-59
2022/05/27 01:20:48;;;;;;;11.40;7.50;;;;;;;19.82;84.83;98799.69;4785049;28;20031;-65
2022/05/27 01:23:39;;;;;;;9.90;7.30;;;;;;;19.96;85.46;98827.75;4841464;28;20652;-65
2022/05/27 01:26:35;;;;;;;12.38;7.82;;;;;;;19.88;85.62;98830.59;4843814;28;20116;-65
2022/05/27 01:29:37;;;;;;;13.23;7.72;;;;;;;19.62;85.79;98792.50;4858381;28;20158;-66
2022/05/27 01:32:11;;;;;;;12.65;7.72;;;;;;;19.87;85.17;98815.75;4842086;28;20078;-63
2022/05/27 01:34:44;;;;;;;12.43;7.65;;;;;;;19.83;85.15;98814.53;4802571;28;20054;-62
2022/05/27 01:37:25;;;;;;;9.43;7.45;;;;;;;19.71;85.67;98804.53;4828569;28;20035;-62
2022/05/27 01:40:14;;;;;;;11.80;7.70;;;;;;;19.60;85.47;98762.88;4851998;28;20857;-64
2022/05/27 01:43:00;;;;;;;10.50;7.55;;;;;;;19.92;85.67;98805.41;4839635;28;20058;-64
2022/05/27 01:45:44;;;;;;;9.68;7.95;;;;;;;19.77;86.14;98809.03;4828893;28;20106;-61
2022/05/27 01:48:30;;;;;;;11.07;7.65;;;;;;;19.87;85.89;98815.75;4766528;28;21447;-63
2022/05/27 01:51:14;;;;;;;12.73;7.20;;;;;;;19.72;86.78;98818.53;4818463;28;20042;-65
2022/05/27 01:53:47;;;;;;;9.38;7.32;;;;;;;19.64;86.66;98816.88;4819912;28;20046;-64
2022/05/27 01:56:20;;;;;;;10.43;7.38;;;;;;;19.67;86.67;98816.47;4796484;28;20173;-65
2022/05/27 01:58:53;;;;;;;12.00;7.78;;;;;;;19.64;86.55;98819.53;4847897;28;20476;-65
2022/05/27 02:01:26;;;;;;;10.05;7.07;;;;;;;19.57;86.67;98811.59;4852563;28;20023;-64
2022/05/27 02:04:21;;;;;;;10.02;7.65;;;;;;;19.66;85.73;98824.56;4798150;28;20047;-61
2022/05/27 02:06:49;;;;;;;17.58;7.97;;;;;;;19.46;86.02;98790.22;4776739;28;20702;-67
2022/05/27 02:09:52;;;;;;;12.25;8.30;;;;;;;19.51;86.62;98793.94;4849918;28;20070;-64
2022/05/27 02:12:28;;;;;;;12.63;8.45;;;;;;;19.42;87.74;98796.91;4841207;28;20785;-61
2022/05/27 02:14:57;;;;;;;11.90;8.05;;;;;;;19.08;88.46;98759.88;4791764;28;20059;-62
2022/05/27 02:17:27;;;;;;;11.60;7.88;;;;;;;19.05;89.31;98767.38;4829132;28;20039;-64
2022/05/27 02:19:57;;;;;;;12.23;8.25;;;;;;;19.29;89.49;98782.66;4840825;28;20085;-65
2022/05/27 02:22:27;;;;;;;;;;;;;;;19.29;90.11;98792.41;4840924;28;20031;-63
2022/05/27 02:25:06;;;;;;;10.98;8.15;;;;;;;19.43;90.16;98795.91;4779991;28;20102;-64
2022/05/27 02:27:36;;;;;;;10.15;7.65;;;;;;;19.31;90.32;98787.75;4832811;28;20035;-65
2022/05/27 02:30:06;;;;;;;11.95;7.97;;;;;;;19.46;90.35;98785.78;4840090;28;20213;-63
2022/05/27 02:32:45;;;;;;;10.18;7.90;;;;;;;19.50;90.49;98791.47;4824869;28;20158;-63
2022/05/27 02:35:21;;;;;;;10.77;8.05;;;;;;;19.48;90.46;98778.50;4797767;28;20364;-65
2022/05/27 02:37:49;;;;;;;9.35;7.38;;;;;;;19.45;90.38;98778.88;4838246;28;20515;-64
2022/05/27 02:40:18;;;;;;;11.13;7.90;;;;;;;19.49;90.75;98785.38;4851944;28;21331;-63
2022/05/27 02:42:43;;;;;;;9.48;7.75;;;;;;;19.40;91.30;98782.13;4825116;28;20050;-61
2022/05/27 02:45:31;;;;;;;12.05;7.38;;;;;;;19.43;91.43;98788.00;4801293;28;21011;-66
2022/05/27 02:48:18;;;;;;;10.10;7.18;;;;;;;19.37;90.14;98779.88;4851738;28;20757;-64
2022/05/27 02:50:49;;;;;;;9.48;6.68;;;;;;;19.15;90.63;98781.81;4840083;28;21616;-65
2022/05/27 02:53:39;;;;;;;9.85;7.32;;;;;;;19.19;91.73;98774.31;4837609;28;20041;-63
2022/05/27 02:56:21;;;;;;;13.27;7.45;;;;;;;19.27;90.16;98770.69;4788965;28;20039;-63
2022/05/27 02:58:47;;;;;;;10.43;7.13;;;;;;;19.17;89.51;98766.63;4796810;28;20268;-63
2022/05/27 03:01:13;;;;;;;11.35;7.28;;;;;;;18.90;90.41;98735.88;4852552;28;20643;-63
2022/05/27 03:03:38;;;;;;;8.98;7.30;;;;;;;19.09;90.19;98760.69;4824040;28;20031;-63
2022/05/27 03:06:07;;;;;;;9.88;7.03;;;;;;;19.06;90.64;98761.91;4782659;28;22441;-63
2022/05/27 03:08:38;;;;;;;10.38;7.82;;;;;;;19.10;90.81;98765.75;4839432;28;20204;-66
2022/05/27 03:11:16;;;;;;;9.95;7.60;;;;;;;19.04;90.85;98761.28;4776979;28;20415;-66
2022/05/27 03:14:18;;;;;;;9.40;7.07;;;;;;;18.97;91.26;98761.25;4849130;28;20375;-65
2022/05/27 03:17:22;;;;;;;9.93;7.25;;;;;;;19.05;90.94;98765.53;4849821;28;22781;-66
2022/05/27 03:20:26;;;;;;;10.85;7.38;;;;;;;19.02;91.16;98766.75;4848568;28;20168;-65
2022/05/27 03:23:22;;;;;;;9.45;7.32;;;;;;;18.95;91.42;98765.91;4847157;28;20047;-62
2022/05/27 03:25:52;;;;;;;10.32;7.38;;;;;;;18.95;91.41;98765.91;4806889;28;20450;-60
2022/05/27 03:28:28;;;;;;;11.25;7.90;;;;;;;18.99;91.32;98758.44;4804443;28;20076;-66
2022/05/27 03:30:56;;;;;;;12.35;7.47;;;;;;;18.96;91.28;98756.97;4846111;28;21232;-69
2022/05/27 03:33:31;;;;;;;11.52;7.95;;;;;;;18.93;91.39;98748.66;4850154;28;20493;-66
2022/05/27 03:36:13;;;;;;;10.40;7.78;;;;;;;18.90;91.67;98759.59;4802902;28;20063;-60
2022/05/27 03:38:44;;;;;;;10.13;7.50;;;;;;;18.84;91.59;98758.56;4801434;28;25717;-63
2022/05/27 03:41:20;;;;;;;11.60;7.78;;;;;;;18.82;91.74;98750.84;4849878;28;20042;-67
2022/05/27 03:43:46;;;;;;;15.55;8.13;;;;;;;18.73;92.33;98743.28;4837478;28;20034;-66
2022/05/27 03:46:11;;;;;;;11.95;7.43;;;;;;;18.79;91.81;98753.81;4774931;28;21055;-65
2022/05/27 03:48:37;;;;;;;10.23;7.55;;;;;;;18.73;91.67;98744.06;4825460;28;21931;-63
2022/05/27 03:51:23;;;;;;;10.57;7.85;;;;;;;18.74;90.93;98755.41;4852358;28;20351;-66
2022/05/27 03:54:03;;;;;;;11.18;7.57;;;;;;;18.80;90.32;98754.63;4839284;28;20030;-62
2022/05/27 03:56:40;;;;;;;11.88;7.68;;;;;;;18.77;89.38;98755.03;4793592;28;20086;-60
2022/05/27 03:59:08;;;;;;;10.55;7.22;;;;;;;18.83;88.36;98754.28;4791249;28;20117;-64
2022/05/27 04:01:35;;;;;;;10.77;7.43;;;;;;;18.85;88.40;98764.63;4849595;28;20039;-65
2022/05/27 04:04:03;;;;;;;10.23;7.47;;;;;;;18.85;88.52;98762.00;4844003;28;20480;-63
2022/05/27 04:06:28;;;;;;;12.52;8.40;;;;;;;18.79;89.25;98758.28;4774745;28;20105;-66
2022/05/27 04:08:55;;;;;;;9.68;7.25;;;;;;;18.71;89.65;98758.44;4839721;28;20452;-65
2022/05/27 04:11:21;;;;;;;10.38;7.45;;;;;;;18.77;89.58;98760.31;4775073;28;20436;-65
2022/05/27 04:13:47;;;;;;;10.02;8.23;;;;;;;18.76;90.14;98767.38;4838702;28;20434;-64
2022/05/27 04:16:12;;;;;;;10.13;7.57;;;;;;;18.47;90.18;98728.09;4850694;28;20038;-65
2022/05/27 04:18:38;;;;;;;11.82;8.10;;;;;;;18.32;90.42;98702.69;4794982;28;20420;-60
2022/05/27 04:21:03;;;;;;;11.80;7.50;;;;;;;18.68;90.37;98754.38;4822067;28;21153;-66
2022/05/27 04:23:29;;;;;;;9.48;7.03;;;;;;;18.75;90.69;98749.16;4848831;28;20398;-65
2022/05/27 04:25:54;;;;;;;10.43;7.90;;;;;;;18.79;89.58;98750.38;4815155;28;20393;-64
2022/05/27 04:28:19;;;;;;;8.82;7.13;;;;;;;18.74;90.06;98736.97;4794788;28;25717;-66
2022/05/27 04:30:45;;;;;;;10.82;7.88;;;;;;;18.71;90.06;98735.56;4844990;28;20125;-62
2022/05/27 04:33:14;;;;;;;11.25;7.15;;;;;;;18.67;90.17;98731.66;4850666;28;20035;-66
2022/05/27 04:35:40;;;;;;;11.57;7.63;;;;;;;18.49;89.85;98711.13;4756495;28;20460;-64
2022/05/27 04:38:06;;;;;;;10.07;7.03;;;;;;;18.63;89.58;98722.53;4840733;28;20545;-65
2022/05/27 04:40:32;;;;;;;10.88;6.80;;;;;;;18.75;89.92;98743.88;4836441;28;20051;-65
2022/05/27 04:42:57;;;;;;;10.85;7.05;;;;;;;18.81;88.94;98753.66;4772704;28;20042;-61
2022/05/27 04:45:23;;;;;;;10.38;7.40;;;;;;;18.75;89.12;98744.69;4835956;28;20034;-65
2022/05/27 04:47:49;;;;;;;8.80;6.57;;;;;;;18.78;89.70;98746.13;4851808;28;21868;-66
2022/05/27 04:50:16;;;;;;;11.27;6.80;;;;;;;18.47;89.07;98714.94;4809695;28;20098;-63
2022/05/27 04:52:42;;;;;;;8.75;6.55;;;;;;;18.74;88.82;98745.69;4828956;28;20062;-64
2022/05/27 04:55:10;;;;;;;9.95;7.13;;;;;;;18.72;89.34;98744.25;4842979;28;20039;-64
2022/05/27 04:57:51;;;;;;;9.82;7.30;;;;;;;18.63;89.38;98749.66;4839823;28;20031;-61
2022/05/27 05:00:22;;;;;;;9.50;7.25;;;;;;;18.67;89.82;98749.28;4809907;28;20039;-65
2022/05/27 05:02:47;;;;;;;10.05;7.32;;;;;;;18.68;89.57;98751.75;4871335;28;20822;-65
2022/05/27 05:05:14;;;;;;;9.77;6.97;;;;;;;18.65;90.05;98746.84;4872575;28;20045;-63
2022/05/27 05:07:41;;;;;;;11.02;7.97;;;;;;;18.61;90.38;98749.06;4811663;28;21074;-64
2022/05/27 05:10:12;;;;;;;9.07;6.88;;;;;;;18.49;89.73;98718.19;4796297;28;21904;-62
2022/05/27 05:12:37;;;;;;;9.50;6.80;;;;;;;18.67;89.50;98747.47;4794780;28;20070;-65
2022/05/27 05:15:03;;;;;;;11.88;7.35;;;;;;;18.66;89.34;98753.75;4794936;28;20561;-69
2022/05/27 05:17:28;;;;;;;11.05;7.28;;;;;;;18.59;89.84;98735.28;4793313;28;20051;-64
2022/05/27 05:19:55;;;;;;;9.27;6.95;;;;;;;18.67;89.29;98734.28;4865692;28;20027;-63
2022/05/27 05:22:22;;;;;;;12.25;7.47;;;;;;;18.56;88.93;98719.03;4825722;28;20037;-64
2022/05/27 05:24:48;;;;;;;9.77;7.13;;;;;;;18.74;89.05;98735.16;4844795;28;20074;-67
2022/05/27 05:27:14;;;;;;;10.65;6.88;;;;;;;18.61;88.12;98722.72;4864766;28;21173;-66
2022/05/27 05:29:40;;;;;;;12.27;7.75;;;;;;;18.44;88.14;98705.63;4848444;28;20027;-62
2022/05/27 05:32:06;;;;;;;11.15;7.30;;;;;;;18.73;88.45;98745.91;4799425;28;20533;-63
2022/05/27 05:34:31;;;;;;;9.85;7.28;;;;;;;18.67;88.41;98742.19;4831714;28;20834;-65
2022/05/27 05:36:57;;;;;;;9.98;7.25;;;;;;;18.62;89.20;98745.44;4795170;28;20193;-66
2022/05/27 05:39:23;;;;;;;9.40;7.30;;;;;;;18.73;88.41;98748.53;4795460;28;20114;-66
2022/05/27 05:42:00;;;;;;;9.85;7.03;;;;;;;18.69;88.71;98745.47;4799096;28;21399;-63
2022/05/27 05:44:26;;;;;;;11.00;7.20;;;;;;;18.76;88.00;98735.75;4786457;28;20697;-64
2022/05/27 05:46:52;;;;;;;12.68;7.40;;;;;;;18.67;85.96;98705.31;4792589;28;20762;-66
2022/05/27 05:49:18;;;;;;;9.93;7.20;;;;;;;18.99;85.86;98745.25;4792430;28;22250;-66
2022/05/27 05:51:43;;;;;;;10.98;7.10;;;;;;;18.91;87.23;98748.03;4797655;28;24970;-65
2022/05/27 05:54:09;;;;;;;11.48;6.97;;;;;;;18.93;85.16;98749.47;4868018;28;20553;-65
2022/05/27 05:56:34;;;;;;;9.85;7.30;;;;;;;19.01;82.77;98748.50;4794036;28;20039;-65
2022/05/27 05:59:00;;;;;;;11.10;7.13;;;;;;;19.07;82.17;98741.63;4852175;28;20707;-64
2022/05/27 06:01:26;;;;;;;11.05;7.45;;;;;;;19.03;83.59;98741.22;4861370;28;20042;-65
2022/05/27 06:03:51;;;;;;;11.00;6.82;;;;;;;18.96;83.70;98745.63;4818434;28;20035;-63
2022/05/27 06:06:17;;;;;;;9.23;6.95;;;;;;;18.57;85.17;98692.53;4834936;28;20709;-65
2022/05/27 06:08:43;;;;;;;9.73;7.88;;;;;;;18.87;86.51;98750.25;4866690;28;21392;-64
2022/05/27 06:11:08;;;;;;;10.43;6.85;;;;;;;18.90;85.30;98746.41;4868310;28;20034;-61
2022/05/27 06:13:35;;;;;;;8.93;6.70;;;;;;;19.11;81.96;98756.03;4783376;28;20026;-60
2022/05/27 06:16:05;;;;;;;9.50;6.72;;;;;;;19.21;84.51;98759.13;4839779;28;20046;-64
2022/05/27 06:18:30;;;;;;;10.25;7.03;;;;;;;19.11;83.66;98748.97;4861899;28;20564;-66
2022/05/27 06:20:56;;;;;;;9.00;6.60;;;;;;;19.02;84.99;98748.31;4791142;28;20377;-66
2022/05/27 06:23:22;;;;;;;10.30;7.85;;;;;;;18.76;85.74;98711.25;4795855;28;20039;-63
2022/05/27 06:25:57;;;;;;;8.40;6.70;;;;;;;19.06;85.30;98761.09;4797445;28;20071;-62
2022/05/27 06:36:36;;;;;;;13.30;6.72;;;;;;;19.26;81.64;98750.59;4800858;28;20197;-65
2022/05/27 06:39:04;;;;;;;10.30;6.88;;;;;;;19.10;82.37;98705.16;4783004;28;20038;-66
2022/05/27 06:41:29;;;;;;;9.93;6.20;;;;;;;19.31;80.48;98741.13;4865404;28;20105;-64
2022/05/27 06:43:55;;;;;;;12.38;7.00;;;;;;;19.42;79.72;98731.81;4836177;28;20058;-62
2022/05/27 06:46:21;;;;;;;8.45;6.25;;;;;;;19.52;78.32;98734.88;4808955;28;20371;-66
2022/05/27 06:48:47;;;;;;;12.68;6.05;;;;;;;19.54;79.28;98727.56;4851996;28;22424;-64
2022/05/27 06:51:12;;;;;;;10.60;6.47;;;;;;;19.58;79.59;98728.00;4848833;28;20072;-60
2022/05/27 06:53:39;;;;;;;11.35;6.32;;;;;;;19.58;80.38;98731.44;4789818;28;20097;-62
2022/05/27 06:56:05;;;;;;;9.90;6.53;;;;;;;19.62;80.66;98731.03;4864141;28;20045;-66
2022/05/27 06:58:31;;;;;;;9.65;6.13;;;;;;;19.64;80.95;98727.22;4865296;28;20062;-65
2022/05/27 07:00:56;;;;;;;10.25;6.60;;;;;;;19.64;80.97;98724.56;4818432;28;20046;-60
2022/05/27 07:03:22;;;;;;;8.65;6.10;;;;;;;19.62;82.05;98723.94;4817164;28;20685;-63
2022/05/27 07:05:48;;;;;;;10.25;6.82;;;;;;;19.71;81.38;98729.84;4856466;28;20399;-65
2022/05/27 07:08:14;;;;;;;8.02;6.20;;;;;;;19.69;82.90;98724.75;4841649;28;20748;-61
2022/05/27 07:10:39;;;;;;;10.65;6.38;;;;;;;19.83;82.80;98735.38;4784836;28;25073;-62
2022/05/27 07:13:04;;;;;;;10.00;6.35;;;;;;;19.84;83.08;98729.06;4796842;28;20035;-64
2022/05/27 07:15:30;;;;;;;9.55;6.05;;;;;;;19.95;82.53;98731.94;4849852;28;20886;-62
2022/05/27 07:17:56;;;;;;;10.15;6.32;;;;;;;20.00;82.06;98736.59;4865256;28;20138;-64
2022/05/27 07:20:23;;;;;;;8.57;6.47;;;;;;;19.91;81.66;98738.63;4790181;28;20534;-61
2022/05/27 07:22:48;;;;;;;9.57;6.13;;;;;;;19.93;81.18;98733.97;4831857;28;20034;-64
2022/05/27 07:25:14;;;;;;;11.20;6.05;;;;;;;20.03;81.69;98736.19;4855649;28;20050;-65
2022/05/27 07:27:41;;;;;;;8.13;6.10;;;;;;;20.12;82.91;98736.81;4822045;28;20386;-62
2022/05/27 07:30:08;;;;;;;10.85;6.65;;;;;;;20.13;81.54;98723.41;4807044;28;21302;-64
2022/05/27 07:32:34;;;;;;;10.35;6.03;;;;;;;20.26;81.55;98725.25;4869969;28;20295;-66
2022/05/27 07:34:59;;;;;;;7.85;5.85;;;;;;;20.18;80.28;98728.06;4859781;28;20031;-65
2022/05/27 07:37:25;;;;;;;8.75;5.82;;;;;;;20.08;80.55;98688.06;4798518;28;20212;-62
2022/05/27 07:39:50;;;;;;;9.13;6.05;;;;;;;20.49;78.90;98716.06;4858612;28;20069;-65
2022/05/27 07:42:16;;;;;;;9.07;5.60;;;;;;;21.03;76.22;98712.28;4859778;28;20545;-62
2022/05/27 07:44:41;;;;;;;9.57;6.40;;;;;;;21.68;74.47;98717.44;4801136;28;20971;-61
2022/05/27 07:47:07;;;;;;;8.25;4.95;;;;;;;21.99;71.56;98705.19;4809975;28;22012;-65
2022/05/27 07:49:32;;;;;;;8.02;5.60;;;;;;;22.24;70.81;98704.38;4850216;28;20082;-64
2022/05/27 07:51:58;;;;;;;9.52;5.57;;;;;;;22.65;70.44;98701.13;4847649;28;20019;-61
2022/05/27 07:54:23;;;;;;;12.82;5.90;;;;;;;22.77;68.17;98706.50;4820393;28;20680;-66
2022/05/27 07:56:49;;;;;;;9.02;5.07;;;;;;;22.52;68.77;98693.31;4844463;28;20038;-65
2022/05/27 07:59:14;;;;;;;10.00;5.25;;;;;;;22.63;69.44;98694.41;4864301;28;20077;-66
2022/05/27 08:01:40;;;;;;;10.05;5.32;;;;;;;22.82;69.56;98698.69;4788720;28;20038;-63
2022/05/27 08:04:06;;;;;;;7.35;4.68;;;;;;;22.70;66.95;98675.78;4829460;28;20691;-65
2022/05/27 08:06:32;;;;;;;10.57;6.03;;;;;;;22.78;65.27;98667.53;4853059;28;20153;-65
2022/05/27 08:08:58;;;;;;;11.45;7.43;;;;;;;23.00;64.07;98697.88;4815947;28;20399;-62
2022/05/27 08:11:24;;;;;;;20.73;13.60;;;;;;;23.03;61.58;98662.94;4814015;28;20125;-63
2022/05/27 08:13:49;;;;;;;20.08;14.45;;;;;;;23.51;61.92;98668.41;4867142;28;20034;-65
2022/05/27 08:16:15;;;;;;;21.80;14.90;;;;;;;23.50;61.20;98675.56;4800984;28;21301;-61
2022/05/27 08:18:41;;;;;;;20.63;14.23;;;;;;;23.62;60.57;98680.94;4854359;28;20038;-66
2022/05/27 08:21:07;;;;;;;25.60;17.77;;;;;;;23.73;59.50;98688.09;4857740;28;20420;-64
2022/05/27 08:23:32;;;;;;;25.52;16.63;;;;;;;24.11;59.27;98694.88;4821161;28;20038;-59
2022/05/27 08:25:58;;;;;;;23.73;17.58;;;;;;;24.44;57.65;98682.00;4803319;28;24797;-65
2022/05/27 08:28:27;;;;;;;23.30;16.23;;;;;;;24.54;57.05;98692.91;4854142;28;20973;-65
2022/05/27 08:30:55;;;;;;;20.30;13.95;;;;;;;24.87;56.83;98694.09;4839136;28;20054;-63
2022/05/27 08:33:23;;;;;;;13.93;10.93;;;;;;;24.68;56.72;98688.94;4799956;28;20262;-60
2022/05/27 08:38:34;;;;;;;17.25;10.18;;;;;;;24.85;54.06;98691.66;4861217;28;20104;-63
2022/05/27 08:41:05;;;;;;;16.08;10.45;;;;;;;24.90;54.77;98653.75;4851035;28;20086;-64
2022/05/27 08:43:54;;;;;;;12.60;8.68;;;;;;;25.77;52.94;98684.53;4794045;28;20105;-65
2022/05/27 08:46:34;;;;;;;12.43;8.52;;;;;;;25.92;51.42;98640.56;4840371;28;20585;-66
2022/05/27 08:49:06;;;;;;;15.27;9.15;;;;;;;26.27;52.52;98673.06;4850338;28;20091;-64
2022/05/27 08:51:40;;;;;;;11.10;7.05;;;;;;;26.28;50.26;98668.53;4844598;28;20035;-65
2022/05/27 08:54:12;;;;;;;8.77;6.07;;;;;;;26.58;49.64;98646.81;4814067;28;25440;-60
2022/05/27 08:59:40;;;;;;;10.90;5.75;;;;;;;27.30;49.38;98660.97;4864728;28;20053;-66
2022/05/27 09:02:25;;;;;;;10.25;6.75;;;;;;;27.11;48.08;98649.03;4847746;28;20023;-63
2022/05/27 09:05:19;;;;;;;10.95;5.07;;;;;;;27.31;49.21;98653.75;4779004;28;22094;-64
2022/05/27 09:08:00;;;;;;;8.38;4.75;;;;;;;27.78;50.00;98645.06;4852329;28;20065;-63
2022/05/27 09:10:33;;;;;;;6.88;4.10;;;;;;;28.37;49.29;98652.94;4843958;28;20031;-65
2022/05/27 09:13:16;;;;;;;7.80;4.88;;;;;;;28.51;47.71;98655.13;4771769;28;21176;-66
2022/05/27 09:16:13;;;;;;;9.20;5.15;;;;;;;28.55;47.22;98630.31;4846725;28;20045;-65
2022/05/27 09:18:53;;;;;;;7.93;4.40;;;;;;;29.01;45.48;98650.25;4861549;28;20071;-64
2022/05/27 09:21:55;;;;;;;7.70;4.50;;;;;;;28.73;46.39;98642.44;4858407;28;20753;-63
2022/05/27 09:24:35;;;;;;;8.65;4.40;;;;;;;28.63;46.29;98612.97;4852881;28;20490;-60
2022/05/27 09:27:06;;;;;;;7.10;4.22;;;;;;;28.88;46.06;98643.53;4794746;28;20408;-60
2022/05/27 09:29:50;;;;;;;7.80;4.95;;;;;;;29.42;44.25;98648.44;4824650;28;20042;-64
2022/05/27 09:32:30;;;;;;;8.82;4.85;;;;;;;29.89;43.75;98642.03;4863080;28;21550;-69
2022/05/27 09:35:03;;;;;;;8.00;4.47;;;;;;;29.80;44.54;98635.59;4846071;28;20487;-67
2022/05/27 09:37:35;;;;;;;6.72;4.05;;;;;;;29.71;43.14;98629.16;4790658;28;20458;-64
2022/05/27 09:40:07;;;;;;;7.25;4.20;;;;;;;29.60;44.19;98620.31;4864223;28;20031;-65
2022/05/27 09:42:39;;;;;;;6.97;4.20;;;;;;;29.82;43.70;98628.09;4800669;28;20057;-62
2022/05/27 09:45:06;;;;;;;6.68;4.30;;;;;;;29.47;44.36;98615.53;4818485;28;20658;-64
2022/05/27 09:47:33;;;;;;;7.75;4.60;;;;;;;28.82;43.80;98585.72;4855719;28;20060;-63
2022/05/27 09:50:05;;;;;;;7.85;4.30;;;;;;;28.73;44.89;98606.81;4861581;28;20414;-62
2022/05/27 09:52:36;;;;;;;7.07;4.22;;;;;;;28.71;46.99;98617.81;4798363;28;20050;-62
2022/05/27 09:55:15;;;;;;;7.22;4.07;;;;;;;28.24;46.58;98617.84;4825582;28;20129;-64
2022/05/27 09:57:58;;;;;;;8.32;4.57;;;;;;;28.10;48.35;98610.31;4846798;28;20035;-65
2022/05/27 10:00:56;;;;;;;7.78;4.90;;;;;;;27.91;48.56;98614.47;4858734;28;20737;-66
2022/05/27 10:03:33;;;;;;;9.98;4.35;;;;;;;27.54;50.25;98605.38;4832891;28;20053;-61
2022/05/27 10:06:02;;;;;;;6.63;4.22;;;;;;;27.26;50.68;98595.00;4765805;28;20109;-64
2022/05/27 10:08:32;;;;;;;6.43;4.13;;;;;;;27.12;51.16;98597.25;4839021;28;21331;-61
2022/05/27 10:11:50;;;;;;;8.82;4.20;;;;;;;26.97;52.14;98590.72;4849402;28;20616;-66
2022/05/27 10:14:28;;;;;;;6.68;3.70;;;;;;;26.93;51.01;98592.28;4825911;28;20061;-60
2022/05/27 10:17:10;;;;;;;6.40;3.92;;;;;;;26.84;51.61;98577.78;4744509;28;20062;-62
2022/05/27 10:19:37;;;;;;;8.00;4.00;;;;;;;26.85;50.23;98580.22;4833909;28;20038;-65
2022/05/27 10:22:09;;;;;;;7.05;4.30;;;;;;;26.73;52.25;98574.22;4820406;28;20894;-63
2022/05/27 10:24:36;;;;;;;6.70;4.10;;;;;;;26.83;49.68;98569.00;4829193;28;20055;-62
2022/05/27 10:27:21;;;;;;;7.97;4.28;;;;;;;26.60;49.96;98555.91;4767218;28;20555;-67
2022/05/27 10:29:59;;;;;;;7.85;4.13;;;;;;;26.38;51.69;98553.28;4816344;28;20152;-65
2022/05/27 10:32:33;;;;;;;6.97;4.20;;;;;;;26.38;51.97;98555.94;4851410;28;21473;-65
2022/05/27 10:35:00;;;;;;;8.13;4.00;;;;;;;26.34;52.82;98552.97;4849454;28;20098;-62
2022/05/27 10:37:59;;;;;;;7.35;4.13;;;;;;;26.36;52.34;98556.19;4777624;28;20034;-60
2022/05/27 10:40:35;;;;;;;7.47;3.90;;;;;;;26.46;50.06;98558.97;4803522;28;20045;-66
2022/05/27 10:43:01;;;;;;;7.40;3.97;;;;;;;26.44;50.06;98528.28;4840840;28;20080;-66
2022/05/27 10:45:44;;;;;;;7.28;3.92;;;;;;;26.82;48.35;98551.38;4860595;28;20045;-62
2022/05/27 10:48:29;;;;;;;6.53;4.20;;;;;;;26.79;49.93;98548.41;4825089;28;20141;-61
2022/05/27 10:51:06;;;;;;;7.88;4.53;;;;;;;26.65;50.25;98542.66;4798820;28;20408;-64
2022/05/27 10:53:48;;;;;;;8.07;3.80;;;;;;;26.70;48.16;98541.91;4860298;28;20672;-65
2022/05/27 10:56:27;;;;;;;7.78;3.63;;;;;;;26.69;49.84;98538.44;4857826;28;20038;-63
2022/05/27 11:02:33;;;;;;;8.38;4.45;;;;;;;26.78;48.28;98518.25;4837140;28;20046;-60
2022/05/27 11:05:20;;;;;;;7.68;4.22;;;;;;;26.65;48.39;98524.81;4778428;28;20711;-62
2022/05/27 11:07:58;;;;;;;8.65;4.50;;;;;;;26.79;49.66;98519.84;4817044;28;20038;-64
2022/05/27 11:10:59;;;;;;;10.10;4.50;;;;;;;27.05;47.63;98509.41;4850828;28;20520;-65
2022/05/27 11:16:54;;;;;;;8.55;3.97;;;;;;;26.80;48.72;98507.34;4847680;28;20252;-63
2022/05/27 11:19:48;;;;;;;8.98;4.18;;;;;;;26.77;48.18;98505.97;4850339;28;20041;-62
2022/05/27 11:22:17;;;;;;;8.40;3.80;;;;;;;26.40;48.46;98449.88;4802159;28;20034;-63
2022/05/27 11:24:42;;;;;;;6.25;4.20;;;;;;;26.81;46.75;98499.06;4851982;28;20065;-65
2022/05/27 11:27:30;;;;;;;7.80;4.05;;;;;;;26.69;48.14;98482.44;4873112;28;20074;-65
2022/05/27 11:30:34;;;;;;;6.88;3.58;;;;;;;27.04;46.84;98500.59;4869811;28;20026;-63
2022/05/27 11:33:22;;;;;;;7.68;3.80;;;;;;;26.84;48.15;98482.56;4858096;28;20057;-60
2022/05/27 11:36:18;;;;;;;6.77;4.30;;;;;;;26.77;49.38;98483.84;4806088;28;20041;-62
2022/05/27 11:38:56;;;;;;;7.20;4.05;;;;;;;26.80;48.81;98480.69;4823109;28;21590;-64
2022/05/27 11:41:44;;;;;;;5.85;3.65;;;;;;;26.82;47.64;98471.34;4869319;28;20035;-63
2022/05/27 11:44:18;;;;;;;8.23;3.88;;;;;;;26.63;47.96;98444.28;4868252;28;21370;-64
2022/05/27 11:47:07;;;;;;;6.80;4.20;;;;;;;26.94;46.92;98465.03;4851099;28;20119;-62
2022/05/27 11:49:47;;;;;;;7.57;4.10;;;;;;;26.77;47.75;98430.50;4805816;28;20884;-59
2022/05/27 11:52:34;;;;;;;6.97;4.05;;;;;;;26.88;48.09;98461.53;4824475;28;20290;-62
2022/05/27 11:55:21;;;;;;;7.80;4.22;;;;;;;26.76;47.03;98427.03;4857355;28;21489;-62
2022/05/27 11:57:55;;;;;;;9.45;4.10;;;;;;;27.08;46.39;98455.53;4853081;28;20878;-63
2022/05/27 12:00:24;;;;;;;7.65;3.70;;;;;;;27.08;47.69;98449.41;4839655;28;20033;-61
2022/05/27 12:02:57;;;;;;;7.43;3.70;;;;;;;27.28;44.24;98438.09;4821212;28;20741;-63
2022/05/27 12:05:29;;;;;;;8.65;3.50;;;;;;;27.29;46.39;98437.84;4866167;28;20840;-65
2022/05/27 12:08:02;;;;;;;7.65;3.65;;;;;;;27.08;46.38;98406.72;4800822;28;20391;-63
2022/05/27 12:10:46;;;;;;;6.28;3.85;;;;;;;27.13;46.66;98420.88;4853667;28;20039;-65
2022/05/27 12:13:19;;;;;;;7.03;3.70;;;;;;;27.27;47.03;98425.78;4844378;28;20054;-62
2022/05/27 12:15:56;;;;;;;6.32;3.55;;;;;;;27.28;46.60;98433.56;4814192;28;20065;-64